sensor_id;sensor_type;location;lat;lon;timestamp;temperature;humidity
3923;DHT22;1976;51.694;6.256;2023-02-12T00:00:08;9.60;99.90
3923;DHT22;1976;51.694;6.256;2023-02-12T00:02:34;9.50;99.90
3923;DHT22;1976;51.694;6.256;2023-02-12T00:05:00;9.50;99.90
3923;DHT22;1976;51.694;6.256;2023-02-12T00:07:29;9.60;99.90
3923;DHT22;1976;51.694;6.256;2023-02-12T00:09:55;9.60;99.90
3923;DHT22;1976;51.694;6.256;2023-02-12T00:12:21;9.60;99.90
3923;DHT22;1976;51.694;6.256;2023-02-12T00:14:47;9.50;99.90
3923;DHT22;1976;51.694;6.256;2023-02-12T00:17:12;9.50;99.90
3923;DHT22;1976;51.694;6.256;2023-02-12T00:19:38;9.50;99.90
3923;DHT22;1976;51.694;6.256;2023-02-12T00:22:03;9.50;99.90
3923;DHT22;1976;51.694;6.256;2023-02-12T00:24:29;9.50;99.90
3923;DHT22;1976;51.694;6.256;2023-02-12T00:26:55;9.50;99.90
3923;DHT22;1976;51.694;6.256;2023-02-12T00:29:20;9.60;99.90
3923;DHT22;1976;51.694;6.256;2023-02-12T00:31:46;9.60;99.90
3923;DHT22;1976;51.694;6.256;2023-02-12T00:34:12;9.50;99.90
3923;DHT22;1976;51.694;6.256;2023-02-12T00:36:37;9.50;99.90
3923;DHT22;1976;51.694;6.256;2023-02-12T00:39:03;9.50;99.90
3923;DHT22;1976;51.694;6.256;2023-02-12T00:41:29;9.50;99.90
3923;DHT22;1976;51.694;6.256;2023-02-12T00:43:55;9.50;99.90
3923;DHT22;1976;51.694;6.256;2023-02-12T00:46:21;9.50;99.90
3923;DHT22;1976;51.694;6.256;2023-02-12T00:48:47;9.50;99.90
3923;DHT22;1976;51.694;6.256;2023-02-12T00:51:13;9.60;99.90
3923;DHT22;1976;51.694;6.256;2023-02-12T00:53:39;9.50;99.90
3923;DHT22;1976;51.694;6.256;2023-02-12T00:56:05;9.40;99.90
3923;DHT22;1976;51.694;6.256;2023-02-12T00:58:31;9.10;99.90
3923;DHT22;1976;51.694;6.256;2023-02-12T01:00:57;8.90;99.90
3923;DHT22;1976;51.694;6.256;2023-02-12T01:03:23;8.80;99.90
3923;DHT22;1976;51.694;6.256;2023-02-12T01:05:49;8.80;99.90
3923;DHT22;1976;51.694;6.256;2023-02-12T01:08:15;8.80;99.90
3923;DHT22;1976;51.694;6.256;2023-02-12T01:10:42;8.80;99.90
3923;DHT22;1976;51.694;6.256;2023-02-12T01:13:11;8.90;99.90
3923;DHT22;1976;51.694;6.256;2023-02-12T01:15:38;9.00;99.90
3923;DHT22;1976;51.694;6.256;2023-02-12T01:18:04;9.00;99.90
3923;DHT22;1976;51.694;6.256;2023-02-12T01:20:30;9.10;99.90
3923;DHT22;1976;51.694;6.256;2023-02-12T01:22:55;9.10;99.90
3923;DHT22;1976;51.694;6.256;2023-02-12T01:25:21;9.20;99.90
3923;DHT22;1976;51.694;6.256;2023-02-12T01:27:47;9.20;99.90
3923;DHT22;1976;51.694;6.256;2023-02-12T01:30:13;9.20;99.90
3923;DHT22;1976;51.694;6.256;2023-02-12T01:32:39;9.10;99.90
3923;DHT22;1976;51.694;6.256;2023-02-12T01:35:06;9.20;99.90
3923;DHT22;1976;51.694;6.256;2023-02-12T01:37:35;9.10;99.90
3923;DHT22;1976;51.694;6.256;2023-02-12T01:40:00;9.00;99.90
3923;DHT22;1976;51.694;6.256;2023-02-12T01:42:26;8.70;99.90
3923;DHT22;1976;51.694;6.256;2023-02-12T01:47:43;8.60;99.90
3923;DHT22;1976;51.694;6.256;2023-02-12T01:50:14;8.60;99.90
3923;DHT22;1976;51.694;6.256;2023-02-12T01:52:45;8.60;99.90
3923;DHT22;1976;51.694;6.256;2023-02-12T01:55:12;8.60;99.90
3923;DHT22;1976;51.694;6.256;2023-02-12T01:57:41;8.70;99.90
3923;DHT22;1976;51.694;6.256;2023-02-12T02:00:12;8.70;99.90
3923;DHT22;1976;51.694;6.256;2023-02-12T02:02:38;8.60;99.90
3923;DHT22;1976;51.694;6.256;2023-02-12T02:05:05;8.60;99.90
3923;DHT22;1976;51.694;6.256;2023-02-12T02:07:31;8.60;99.90
3923;DHT22;1976;51.694;6.256;2023-02-12T02:09:57;8.70;99.90
3923;DHT22;1976;51.694;6.256;2023-02-12T02:12:25;8.70;99.90
3923;DHT22;1976;51.694;6.256;2023-02-12T02:15:09;8.80;99.90
3923;DHT22;1976;51.694;6.256;2023-02-12T02:31:29;8.70;99.90
3923;DHT22;1976;51.694;6.256;2023-02-12T02:33:58;8.60;99.90
3923;DHT22;1976;51.694;6.256;2023-02-12T02:36:56;8.70;99.90
3923;DHT22;1976;51.694;6.256;2023-02-12T02:39:42;8.70;99.90
3923;DHT22;1976;51.694;6.256;2023-02-12T02:48:11;8.60;99.90
3923;DHT22;1976;51.694;6.256;2023-02-12T02:50:41;8.60;99.90
3923;DHT22;1976;51.694;6.256;2023-02-12T02:53:18;8.50;99.90
3923;DHT22;1976;51.694;6.256;2023-02-12T02:55:49;8.40;99.90
3923;DHT22;1976;51.694;6.256;2023-02-12T02:58:34;8.40;99.90
3923;DHT22;1976;51.694;6.256;2023-02-12T03:01:05;8.30;99.90
3923;DHT22;1976;51.694;6.256;2023-02-12T03:03:41;8.30;99.90
3923;DHT22;1976;51.694;6.256;2023-02-12T03:06:30;8.30;99.90
3923;DHT22;1976;51.694;6.256;2023-02-12T03:09:08;8.20;99.90
3923;DHT22;1976;51.694;6.256;2023-02-12T03:11:36;8.10;99.90
3923;DHT22;1976;51.694;6.256;2023-02-12T03:14:12;8.10;99.90
3923;DHT22;1976;51.694;6.256;2023-02-12T03:16:49;8.00;99.90
3923;DHT22;1976;51.694;6.256;2023-02-12T03:19:16;8.00;99.90
3923;DHT22;1976;51.694;6.256;2023-02-12T03:22:05;8.00;99.90
3923;DHT22;1976;51.694;6.256;2023-02-12T03:24:39;8.00;99.90
3923;DHT22;1976;51.694;6.256;2023-02-12T03:27:10;8.00;99.90
3923;DHT22;1976;51.694;6.256;2023-02-12T03:29:38;8.10;99.90
3923;DHT22;1976;51.694;6.256;2023-02-12T03:35:16;8.20;99.90
3923;DHT22;1976;51.694;6.256;2023-02-12T03:37:45;8.20;99.90
3923;DHT22;1976;51.694;6.256;2023-02-12T03:40:21;8.20;99.90
3923;DHT22;1976;51.694;6.256;2023-02-12T03:42:56;8.20;99.90
3923;DHT22;1976;51.694;6.256;2023-02-12T03:45:28;8.30;99.90
3923;DHT22;1976;51.694;6.256;2023-02-12T03:51:19;8.30;99.90
3923;DHT22;1976;51.694;6.256;2023-02-12T03:53:46;8.20;99.90
3923;DHT22;1976;51.694;6.256;2023-02-12T03:56:16;8.30;99.90
3923;DHT22;1976;51.694;6.256;2023-02-12T03:58:44;8.30;99.90
3923;DHT22;1976;51.694;6.256;2023-02-12T04:01:11;8.20;99.90
3923;DHT22;1976;51.694;6.256;2023-02-12T04:03:38;8.20;99.90
3923;DHT22;1976;51.694;6.256;2023-02-12T04:06:04;8.20;99.90
3923;DHT22;1976;51.694;6.256;2023-02-12T04:08:30;8.20;99.90
3923;DHT22;1976;51.694;6.256;2023-02-12T04:14:12;8.20;99.90
3923;DHT22;1976;51.694;6.256;2023-02-12T04:19:19;8.00;99.90
3923;DHT22;1976;51.694;6.256;2023-02-12T04:22:02;8.00;99.90
3923;DHT22;1976;51.694;6.256;2023-02-12T04:27:25;8.10;99.90
3923;DHT22;1976;51.694;6.256;2023-02-12T04:32:36;8.00;99.90
3923;DHT22;1976;51.694;6.256;2023-02-12T04:35:20;8.00;99.90
3923;DHT22;1976;51.694;6.256;2023-02-12T04:37:51;8.10;99.90
3923;DHT22;1976;51.694;6.256;2023-02-12T04:40:20;8.20;99.90
3923;DHT22;1976;51.694;6.256;2023-02-12T04:42:48;8.20;99.90
3923;DHT22;1976;51.694;6.256;2023-02-12T04:45:27;8.20;99.90
3923;DHT22;1976;51.694;6.256;2023-02-12T04:47:53;8.20;99.90
3923;DHT22;1976;51.694;6.256;2023-02-12T04:50:19;8.20;99.90
3923;DHT22;1976;51.694;6.256;2023-02-12T04:52:45;8.30;99.90
3923;DHT22;1976;51.694;6.256;2023-02-12T04:55:11;8.30;99.90
3923;DHT22;1976;51.694;6.256;2023-02-12T04:57:36;8.30;99.90
3923;DHT22;1976;51.694;6.256;2023-02-12T05:00:04;8.30;99.90
3923;DHT22;1976;51.694;6.256;2023-02-12T05:02:31;8.30;99.90
3923;DHT22;1976;51.694;6.256;2023-02-12T05:04:57;8.30;99.90
3923;DHT22;1976;51.694;6.256;2023-02-12T05:07:23;8.40;99.90
3923;DHT22;1976;51.694;6.256;2023-02-12T05:09:48;8.50;99.90
3923;DHT22;1976;51.694;6.256;2023-02-12T05:12:14;8.50;99.90
3923;DHT22;1976;51.694;6.256;2023-02-12T05:14:40;7.30;99.90
3923;DHT22;1976;51.694;6.256;2023-02-12T05:17:05;8.60;99.90
3923;DHT22;1976;51.694;6.256;2023-02-12T05:19:31;8.60;99.90
3923;DHT22;1976;51.694;6.256;2023-02-12T05:21:57;8.60;99.90
3923;DHT22;1976;51.694;6.256;2023-02-12T05:24:22;8.60;99.90
3923;DHT22;1976;51.694;6.256;2023-02-12T05:26:50;8.60;99.90
3923;DHT22;1976;51.694;6.256;2023-02-12T05:29:16;8.50;99.90
3923;DHT22;1976;51.694;6.256;2023-02-12T05:31:41;8.50;99.90
3923;DHT22;1976;51.694;6.256;2023-02-12T05:34:09;8.50;99.90
3923;DHT22;1976;51.694;6.256;2023-02-12T05:36:35;8.50;99.90
3923;DHT22;1976;51.694;6.256;2023-02-12T05:39:01;8.50;99.90
3923;DHT22;1976;51.694;6.256;2023-02-12T05:41:26;8.40;99.90
3923;DHT22;1976;51.694;6.256;2023-02-12T05:43:52;8.40;99.90
3923;DHT22;1976;51.694;6.256;2023-02-12T05:46:19;8.40;99.90
3923;DHT22;1976;51.694;6.256;2023-02-12T05:48:46;8.50;99.90
3923;DHT22;1976;51.694;6.256;2023-02-12T05:51:15;8.40;99.90
3923;DHT22;1976;51.694;6.256;2023-02-12T05:53:41;8.40;99.90
3923;DHT22;1976;51.694;6.256;2023-02-12T05:58:41;8.30;99.90
3923;DHT22;1976;51.694;6.256;2023-02-12T06:01:12;8.30;99.90
3923;DHT22;1976;51.694;6.256;2023-02-12T06:03:38;8.30;99.90
3923;DHT22;1976;51.694;6.256;2023-02-12T06:06:04;8.30;99.90
3923;DHT22;1976;51.694;6.256;2023-02-12T06:08:30;8.30;99.90
3923;DHT22;1976;51.694;6.256;2023-02-12T06:10:59;8.40;99.90
3923;DHT22;1976;51.694;6.256;2023-02-12T06:13:25;8.30;99.90
3923;DHT22;1976;51.694;6.256;2023-02-12T06:15:51;8.30;99.90
3923;DHT22;1976;51.694;6.256;2023-02-12T06:18:16;8.20;99.90
3923;DHT22;1976;51.694;6.256;2023-02-12T06:20:42;8.20;99.90
3923;DHT22;1976;51.694;6.256;2023-02-12T06:23:08;8.20;99.90
3923;DHT22;1976;51.694;6.256;2023-02-12T06:25:33;8.30;99.90
3923;DHT22;1976;51.694;6.256;2023-02-12T06:27:59;8.30;99.90
3923;DHT22;1976;51.694;6.256;2023-02-12T06:30:25;8.30;99.90
3923;DHT22;1976;51.694;6.256;2023-02-12T06:32:50;8.30;99.90
3923;DHT22;1976;51.694;6.256;2023-02-12T06:35:16;8.20;99.90
3923;DHT22;1976;51.694;6.256;2023-02-12T06:37:41;8.30;99.90
3923;DHT22;1976;51.694;6.256;2023-02-12T06:40:07;8.30;99.90
3923;DHT22;1976;51.694;6.256;2023-02-12T06:42:33;8.30;99.90
3923;DHT22;1976;51.694;6.256;2023-02-12T06:44:58;8.30;99.90
3923;DHT22;1976;51.694;6.256;2023-02-12T06:47:24;8.40;99.90
3923;DHT22;1976;51.694;6.256;2023-02-12T06:49:51;8.50;99.90
3923;DHT22;1976;51.694;6.256;2023-02-12T06:52:16;8.50;99.90
3923;DHT22;1976;51.694;6.256;2023-02-12T06:54:42;8.60;99.90
3923;DHT22;1976;51.694;6.256;2023-02-12T06:57:07;8.60;99.90
3923;DHT22;1976;51.694;6.256;2023-02-12T06:59:34;8.70;99.90
3923;DHT22;1976;51.694;6.256;2023-02-12T07:01:59;8.70;99.90
3923;DHT22;1976;51.694;6.256;2023-02-12T07:04:25;8.80;99.90
3923;DHT22;1976;51.694;6.256;2023-02-12T07:06:51;8.70;99.90
3923;DHT22;1976;51.694;6.256;2023-02-12T07:09:16;8.70;99.90
3923;DHT22;1976;51.694;6.256;2023-02-12T07:11:42;8.80;99.90
3923;DHT22;1976;51.694;6.256;2023-02-12T07:14:16;8.70;99.90
3923;DHT22;1976;51.694;6.256;2023-02-12T07:16:41;11.40;99.90
3923;DHT22;1976;51.694;6.256;2023-02-12T07:19:10;8.70;99.90
3923;DHT22;1976;51.694;6.256;2023-02-12T07:21:37;8.80;99.90
3923;DHT22;1976;51.694;6.256;2023-02-12T07:24:03;8.80;99.90
3923;DHT22;1976;51.694;6.256;2023-02-12T07:26:28;8.90;99.90
3923;DHT22;1976;51.694;6.256;2023-02-12T07:28:56;8.90;99.90
3923;DHT22;1976;51.694;6.256;2023-02-12T07:31:22;9.00;99.90
3923;DHT22;1976;51.694;6.256;2023-02-12T07:33:52;9.00;99.90
3923;DHT22;1976;51.694;6.256;2023-02-12T07:36:19;9.10;99.90
3923;DHT22;1976;51.694;6.256;2023-02-12T07:38:45;9.20;99.90
3923;DHT22;1976;51.694;6.256;2023-02-12T07:41:20;9.40;99.90
3923;DHT22;1976;51.694;6.256;2023-02-12T07:43:47;9.40;99.90
3923;DHT22;1976;51.694;6.256;2023-02-12T07:46:18;9.50;99.90
3923;DHT22;1976;51.694;6.256;2023-02-12T07:48:45;9.50;99.90
3923;DHT22;1976;51.694;6.256;2023-02-12T07:51:13;9.60;99.90
3923;DHT22;1976;51.694;6.256;2023-02-12T07:53:40;9.60;99.90
3923;DHT22;1976;51.694;6.256;2023-02-12T07:56:14;9.70;99.90
3923;DHT22;1976;51.694;6.256;2023-02-12T07:58:41;9.70;99.90
3923;DHT22;1976;51.694;6.256;2023-02-12T08:01:21;9.70;99.90
3923;DHT22;1976;51.694;6.256;2023-02-12T08:03:49;9.80;99.90
3923;DHT22;1976;51.694;6.256;2023-02-12T08:06:23;9.80;99.90
3923;DHT22;1976;51.694;6.256;2023-02-12T08:08:54;9.90;99.90
3923;DHT22;1976;51.694;6.256;2023-02-12T08:11:20;9.90;99.90
3923;DHT22;1976;51.694;6.256;2023-02-12T08:13:46;9.90;99.90
3923;DHT22;1976;51.694;6.256;2023-02-12T08:16:14;10.00;99.90
3923;DHT22;1976;51.694;6.256;2023-02-12T08:18:41;10.00;99.90
3923;DHT22;1976;51.694;6.256;2023-02-12T08:21:15;10.00;99.90
3923;DHT22;1976;51.694;6.256;2023-02-12T08:23:42;10.10;99.90
3923;DHT22;1976;51.694;6.256;2023-02-12T08:28:51;10.10;99.90
3923;DHT22;1976;51.694;6.256;2023-02-12T08:31:45;10.10;99.90
3923;DHT22;1976;51.694;6.256;2023-02-12T08:34:25;10.10;99.90
3923;DHT22;1976;51.694;6.256;2023-02-12T08:36:52;10.00;99.90
3923;DHT22;1976;51.694;6.256;2023-02-12T08:39:18;10.10;99.90
3923;DHT22;1976;51.694;6.256;2023-02-12T08:41:45;10.10;99.90
3923;DHT22;1976;51.694;6.256;2023-02-12T08:44:11;10.00;99.90
3923;DHT22;1976;51.694;6.256;2023-02-12T08:46:41;10.00;99.90
3923;DHT22;1976;51.694;6.256;2023-02-12T08:49:16;10.00;99.90
3923;DHT22;1976;51.694;6.256;2023-02-12T08:51:46;10.00;99.90
3923;DHT22;1976;51.694;6.256;2023-02-12T08:54:21;9.90;99.90
3923;DHT22;1976;51.694;6.256;2023-02-12T08:56:48;9.80;99.90
3923;DHT22;1976;51.694;6.256;2023-02-12T08:59:15;9.80;99.90
3923;DHT22;1976;51.694;6.256;2023-02-12T09:01:41;9.80;99.90
3923;DHT22;1976;51.694;6.256;2023-02-12T09:04:13;9.80;99.90
3923;DHT22;1976;51.694;6.256;2023-02-12T09:06:39;9.80;99.90
3923;DHT22;1976;51.694;6.256;2023-02-12T09:09:05;9.80;99.90
3923;DHT22;1976;51.694;6.256;2023-02-12T09:11:33;9.80;99.90
3923;DHT22;1976;51.694;6.256;2023-02-12T09:14:02;9.80;99.90
3923;DHT22;1976;51.694;6.256;2023-02-12T09:16:29;9.80;99.90
3923;DHT22;1976;51.694;6.256;2023-02-12T09:18:55;9.80;99.90
3923;DHT22;1976;51.694;6.256;2023-02-12T09:21:22;9.90;99.90
3923;DHT22;1976;51.694;6.256;2023-02-12T09:23:48;10.00;99.90
3923;DHT22;1976;51.694;6.256;2023-02-12T09:26:18;10.20;99.90
3923;DHT22;1976;51.694;6.256;2023-02-12T09:28:48;10.30;99.90
3923;DHT22;1976;51.694;6.256;2023-02-12T09:31:20;10.50;99.90
3923;DHT22;1976;51.694;6.256;2023-02-12T09:33:47;10.60;99.90
3923;DHT22;1976;51.694;6.256;2023-02-12T09:36:15;10.80;99.90
3923;DHT22;1976;51.694;6.256;2023-02-12T09:38:41;11.00;99.90
3923;DHT22;1976;51.694;6.256;2023-02-12T09:44:25;11.30;99.90
3923;DHT22;1976;51.694;6.256;2023-02-12T09:47:20;11.40;99.90
3923;DHT22;1976;51.694;6.256;2023-02-12T09:52:44;11.60;99.90
3923;DHT22;1976;51.694;6.256;2023-02-12T09:55:14;11.80;99.90
3923;DHT22;1976;51.694;6.256;2023-02-12T09:57:41;11.90;99.90
3923;DHT22;1976;51.694;6.256;2023-02-12T10:00:33;11.90;99.90
3923;DHT22;1976;51.694;6.256;2023-02-12T10:03:03;12.00;99.90
3923;DHT22;1976;51.694;6.256;2023-02-12T10:06:06;12.10;99.90
3923;DHT22;1976;51.694;6.256;2023-02-12T10:08:56;12.20;99.90
3923;DHT22;1976;51.694;6.256;2023-02-12T10:11:42;12.20;99.90
3923;DHT22;1976;51.694;6.256;2023-02-12T10:14:33;12.20;99.90
3923;DHT22;1976;51.694;6.256;2023-02-12T10:17:40;12.30;99.90
3923;DHT22;1976;51.694;6.256;2023-02-12T10:20:31;12.30;99.90
3923;DHT22;1976;51.694;6.256;2023-02-12T10:28:41;12.50;99.90
3923;DHT22;1976;51.694;6.256;2023-02-12T10:33:45;12.60;99.90
3923;DHT22;1976;51.694;6.256;2023-02-12T10:36:41;12.60;99.90
3923;DHT22;1976;51.694;6.256;2023-02-12T10:44:41;12.80;99.90
3923;DHT22;1976;51.694;6.256;2023-02-12T10:47:19;12.80;99.90
3923;DHT22;1976;51.694;6.256;2023-02-12T10:49:59;12.90;99.90
3923;DHT22;1976;51.694;6.256;2023-02-12T10:52:33;13.00;99.90
3923;DHT22;1976;51.694;6.256;2023-02-12T10:55:00;13.10;99.90
3923;DHT22;1976;51.694;6.256;2023-02-12T10:57:29;13.10;99.90
3923;DHT22;1976;51.694;6.256;2023-02-12T11:00:14;13.20;99.90
3923;DHT22;1976;51.694;6.256;2023-02-12T11:03:00;13.20;99.90
3923;DHT22;1976;51.694;6.256;2023-02-12T11:05:29;13.20;99.90
3923;DHT22;1976;51.694;6.256;2023-02-12T11:07:56;13.30;99.90
3923;DHT22;1976;51.694;6.256;2023-02-12T11:13:01;13.40;99.90
3923;DHT22;1976;51.694;6.256;2023-02-12T11:15:45;13.50;99.90
3923;DHT22;1976;51.694;6.256;2023-02-12T11:18:22;13.50;99.90
3923;DHT22;1976;51.694;6.256;2023-02-12T11:23:37;13.60;99.90
3923;DHT22;1976;51.694;6.256;2023-02-12T11:28:57;13.70;99.90
3923;DHT22;1976;51.694;6.256;2023-02-12T11:31:24;13.80;99.90
3923;DHT22;1976;51.694;6.256;2023-02-12T11:36:29;13.90;99.90
3923;DHT22;1976;51.694;6.256;2023-02-12T11:38:57;14.00;99.90
3923;DHT22;1976;51.694;6.256;2023-02-12T11:41:38;14.00;99.90
3923;DHT22;1976;51.694;6.256;2023-02-12T11:44:16;14.00;99.90
3923;DHT22;1976;51.694;6.256;2023-02-12T11:46:50;14.10;99.90
3923;DHT22;1976;51.694;6.256;2023-02-12T11:49:21;14.20;99.90
3923;DHT22;1976;51.694;6.256;2023-02-12T11:51:48;14.20;99.90
3923;DHT22;1976;51.694;6.256;2023-02-12T11:54:21;14.30;99.90
3923;DHT22;1976;51.694;6.256;2023-02-12T11:56:48;14.30;99.90
3923;DHT22;1976;51.694;6.256;2023-02-12T12:01:43;14.20;99.90
3923;DHT22;1976;51.694;6.256;2023-02-12T12:04:13;14.20;99.90
3923;DHT22;1976;51.694;6.256;2023-02-12T12:06:55;14.20;99.90
3923;DHT22;1976;51.694;6.256;2023-02-12T12:14:24;14.10;99.80
3923;DHT22;1976;51.694;6.256;2023-02-12T12:16:59;14.00;99.70
3923;DHT22;1976;51.694;6.256;2023-02-12T12:19:56;14.00;99.70
3923;DHT22;1976;51.694;6.256;2023-02-12T12:25:26;14.10;99.80
3923;DHT22;1976;51.694;6.256;2023-02-12T12:41:46;13.70;99.20
3923;DHT22;1976;51.694;6.256;2023-02-12T12:56:06;13.60;99.20
3923;DHT22;1976;51.694;6.256;2023-02-12T13:07:14;13.80;98.90
3923;DHT22;1976;51.694;6.256;2023-02-12T13:17:50;13.80;99.20
3923;DHT22;1976;51.694;6.256;2023-02-12T13:20:33;13.80;99.20
3923;DHT22;1976;51.694;6.256;2023-02-12T13:26:02;13.80;99.30
3923;DHT22;1976;51.694;6.256;2023-02-12T13:28:41;13.80;99.30
3923;DHT22;1976;51.694;6.256;2023-02-12T13:31:12;13.80;99.10
3923;DHT22;1976;51.694;6.256;2023-02-12T13:33:46;13.80;98.90
3923;DHT22;1976;51.694;6.256;2023-02-12T13:36:13;13.70;99.10
3923;DHT22;1976;51.694;6.256;2023-02-12T13:38:46;13.70;98.90
3923;DHT22;1976;51.694;6.256;2023-02-12T13:41:12;13.70;98.90
3923;DHT22;1976;51.694;6.256;2023-02-12T13:43:53;13.70;98.90
3923;DHT22;1976;51.694;6.256;2023-02-12T13:51:45;13.70;99.00
3923;DHT22;1976;51.694;6.256;2023-02-12T13:57:07;13.60;99.30
3923;DHT22;1976;51.694;6.256;2023-02-12T14:02:00;13.60;99.30
3923;DHT22;1976;51.694;6.256;2023-02-12T14:04:45;13.60;99.20
3923;DHT22;1976;51.694;6.256;2023-02-12T14:07:13;13.60;99.10
3923;DHT22;1976;51.694;6.256;2023-02-12T14:14:40;13.50;99.00
3923;DHT22;1976;51.694;6.256;2023-02-12T14:37:59;13.20;99.90
3923;DHT22;1976;51.694;6.256;2023-02-12T14:43:27;13.10;99.90
3923;DHT22;1976;51.694;6.256;2023-02-12T14:45:55;13.00;99.90
3923;DHT22;1976;51.694;6.256;2023-02-12T14:49:00;13.00;99.90
3923;DHT22;1976;51.694;6.256;2023-02-12T14:51:45;13.00;99.90
3923;DHT22;1976;51.694;6.256;2023-02-12T14:54:34;12.90;99.90
3923;DHT22;1976;51.694;6.256;2023-02-12T14:59:58;12.70;99.90
3923;DHT22;1976;51.694;6.256;2023-02-12T15:02:27;12.60;99.90
3923;DHT22;1976;51.694;6.256;2023-02-12T15:05:00;12.60;99.90
3923;DHT22;1976;51.694;6.256;2023-02-12T15:07:34;12.50;99.90
3923;DHT22;1976;51.694;6.256;2023-02-12T15:10:06;12.50;99.90
3923;DHT22;1976;51.694;6.256;2023-02-12T15:15:43;12.50;99.90
3923;DHT22;1976;51.694;6.256;2023-02-12T15:21:23;12.40;99.90
3923;DHT22;1976;51.694;6.256;2023-02-12T15:24:10;12.40;99.90
3923;DHT22;1976;51.694;6.256;2023-02-12T15:26:41;12.40;99.90
3923;DHT22;1976;51.694;6.256;2023-02-12T15:32:04;12.40;99.90
3923;DHT22;1976;51.694;6.256;2023-02-12T15:34:32;12.40;99.90
3923;DHT22;1976;51.694;6.256;2023-02-12T15:37:01;12.30;99.90
3923;DHT22;1976;51.694;6.256;2023-02-12T15:39:41;12.40;99.90
3923;DHT22;1976;51.694;6.256;2023-02-12T15:42:32;12.40;99.90
3923;DHT22;1976;51.694;6.256;2023-02-12T15:45:06;12.40;99.90
3923;DHT22;1976;51.694;6.256;2023-02-12T15:47:32;12.40;99.90
3923;DHT22;1976;51.694;6.256;2023-02-12T15:49:59;12.40;99.90
3923;DHT22;1976;51.694;6.256;2023-02-12T15:52:34;12.30;99.90
3923;DHT22;1976;51.694;6.256;2023-02-12T15:55:02;12.30;99.90
3923;DHT22;1976;51.694;6.256;2023-02-12T15:57:29;12.20;99.90
3923;DHT22;1976;51.694;6.256;2023-02-12T16:00:00;12.20;99.90
3923;DHT22;1976;51.694;6.256;2023-02-12T16:02:30;12.10;99.90
3923;DHT22;1976;51.694;6.256;2023-02-12T16:04:58;12.00;99.90
3923;DHT22;1976;51.694;6.256;2023-02-12T16:07:25;11.90;99.90
3923;DHT22;1976;51.694;6.256;2023-02-12T16:09:53;11.80;99.90
3923;DHT22;1976;51.694;6.256;2023-02-12T16:12:22;11.70;99.90
3923;DHT22;1976;51.694;6.256;2023-02-12T16:14:53;11.70;99.90
3923;DHT22;1976;51.694;6.256;2023-02-12T16:17:31;11.70;99.90
3923;DHT22;1976;51.694;6.256;2023-02-12T16:20:03;11.60;99.90
3923;DHT22;1976;51.694;6.256;2023-02-12T16:22:36;11.50;99.90
3923;DHT22;1976;51.694;6.256;2023-02-12T16:25:04;11.50;99.90
3923;DHT22;1976;51.694;6.256;2023-02-12T16:27:36;11.50;99.90
3923;DHT22;1976;51.694;6.256;2023-02-12T16:30:05;11.40;99.90
3923;DHT22;1976;51.694;6.256;2023-02-12T16:42:36;11.40;99.90
3923;DHT22;1976;51.694;6.256;2023-02-12T16:48:12;11.30;99.90
3923;DHT22;1976;51.694;6.256;2023-02-12T16:50:54;11.30;99.90
3923;DHT22;1976;51.694;6.256;2023-02-12T16:53:44;11.20;99.90
3923;DHT22;1976;51.694;6.256;2023-02-12T16:56:14;11.20;99.90
3923;DHT22;1976;51.694;6.256;2023-02-12T16:58:43;11.20;99.90
3923;DHT22;1976;51.694;6.256;2023-02-12T17:01:16;11.10;99.90
3923;DHT22;1976;51.694;6.256;2023-02-12T17:03:42;11.10;99.90
3923;DHT22;1976;51.694;6.256;2023-02-12T17:06:09;11.10;99.90
3923;DHT22;1976;51.694;6.256;2023-02-12T17:08:35;11.10;99.90
3923;DHT22;1976;51.694;6.256;2023-02-12T17:11:01;11.10;99.90
3923;DHT22;1976;51.694;6.256;2023-02-12T17:13:26;11.00;99.90
3923;DHT22;1976;51.694;6.256;2023-02-12T17:15:55;11.10;99.90
3923;DHT22;1976;51.694;6.256;2023-02-12T17:18:22;11.00;99.90
3923;DHT22;1976;51.694;6.256;2023-02-12T17:20:54;11.10;99.90
3923;DHT22;1976;51.694;6.256;2023-02-12T17:23:21;11.00;99.90
3923;DHT22;1976;51.694;6.256;2023-02-12T17:25:47;11.00;99.90
3923;DHT22;1976;51.694;6.256;2023-02-12T17:28:13;11.00;99.90
3923;DHT22;1976;51.694;6.256;2023-02-12T17:30:40;11.00;99.90
3923;DHT22;1976;51.694;6.256;2023-02-12T17:33:06;10.90;99.90
3923;DHT22;1976;51.694;6.256;2023-02-12T17:35:32;10.90;99.90
3923;DHT22;1976;51.694;6.256;2023-02-12T17:37:57;10.90;99.90
3923;DHT22;1976;51.694;6.256;2023-02-12T17:40:23;10.90;99.90
3923;DHT22;1976;51.694;6.256;2023-02-12T17:42:48;10.80;99.90
3923;DHT22;1976;51.694;6.256;2023-02-12T17:45:14;10.80;99.90
3923;DHT22;1976;51.694;6.256;2023-02-12T17:47:40;10.80;99.90
3923;DHT22;1976;51.694;6.256;2023-02-12T17:50:15;10.80;99.90
3923;DHT22;1976;51.694;6.256;2023-02-12T17:52:41;10.80;99.90
3923;DHT22;1976;51.694;6.256;2023-02-12T17:55:08;10.80;99.90
3923;DHT22;1976;51.694;6.256;2023-02-12T17:57:35;10.70;99.90
3923;DHT22;1976;51.694;6.256;2023-02-12T18:00:02;10.70;99.90
3923;DHT22;1976;51.694;6.256;2023-02-12T18:02:28;10.70;99.90
3923;DHT22;1976;51.694;6.256;2023-02-12T18:04:53;10.60;99.90
3923;DHT22;1976;51.694;6.256;2023-02-12T18:07:19;10.60;99.90
3923;DHT22;1976;51.694;6.256;2023-02-12T18:09:44;10.60;99.90
3923;DHT22;1976;51.694;6.256;2023-02-12T18:12:10;10.60;99.90
3923;DHT22;1976;51.694;6.256;2023-02-12T18:14:36;10.50;99.90
3923;DHT22;1976;51.694;6.256;2023-02-12T18:17:02;10.50;99.90
3923;DHT22;1976;51.694;6.256;2023-02-12T18:19:27;10.40;99.90
3923;DHT22;1976;51.694;6.256;2023-02-12T18:21:54;10.40;99.90
3923;DHT22;1976;51.694;6.256;2023-02-12T18:24:19;10.40;99.90
3923;DHT22;1976;51.694;6.256;2023-02-12T18:26:45;10.30;99.90
3923;DHT22;1976;51.694;6.256;2023-02-12T18:29:11;10.40;99.90
3923;DHT22;1976;51.694;6.256;2023-02-12T18:31:37;10.40;99.90
3923;DHT22;1976;51.694;6.256;2023-02-12T18:34:04;10.40;99.90
3923;DHT22;1976;51.694;6.256;2023-02-12T18:36:30;10.40;99.90
3923;DHT22;1976;51.694;6.256;2023-02-12T18:38:56;10.40;99.90
3923;DHT22;1976;51.694;6.256;2023-02-12T18:41:27;10.40;99.90
3923;DHT22;1976;51.694;6.256;2023-02-12T18:43:53;10.30;99.90
3923;DHT22;1976;51.694;6.256;2023-02-12T18:46:21;10.30;99.90
3923;DHT22;1976;51.694;6.256;2023-02-12T18:48:48;10.30;99.90
3923;DHT22;1976;51.694;6.256;2023-02-12T18:51:20;10.30;99.90
3923;DHT22;1976;51.694;6.256;2023-02-12T18:53:47;10.30;99.90
3923;DHT22;1976;51.694;6.256;2023-02-12T18:56:13;10.40;99.90
3923;DHT22;1976;51.694;6.256;2023-02-12T18:58:39;10.40;99.90
3923;DHT22;1976;51.694;6.256;2023-02-12T19:01:15;10.40;99.90
3923;DHT22;1976;51.694;6.256;2023-02-12T19:03:43;10.40;99.90
3923;DHT22;1976;51.694;6.256;2023-02-12T19:06:09;10.30;99.90
3923;DHT22;1976;51.694;6.256;2023-02-12T19:08:34;10.30;99.90
3923;DHT22;1976;51.694;6.256;2023-02-12T19:11:00;10.40;99.90
3923;DHT22;1976;51.694;6.256;2023-02-12T19:13:26;10.30;99.90
3923;DHT22;1976;51.694;6.256;2023-02-12T19:15:51;10.40;99.90
3923;DHT22;1976;51.694;6.256;2023-02-12T19:18:17;10.30;99.90
3923;DHT22;1976;51.694;6.256;2023-02-12T19:20:44;10.30;99.90
3923;DHT22;1976;51.694;6.256;2023-02-12T19:23:10;10.30;99.90
3923;DHT22;1976;51.694;6.256;2023-02-12T19:25:35;10.20;99.90
3923;DHT22;1976;51.694;6.256;2023-02-12T19:28:10;10.20;99.90
3923;DHT22;1976;51.694;6.256;2023-02-12T19:30:38;10.20;99.90
3923;DHT22;1976;51.694;6.256;2023-02-12T19:33:05;10.20;99.90
3923;DHT22;1976;51.694;6.256;2023-02-12T19:35:30;10.20;99.90
3923;DHT22;1976;51.694;6.256;2023-02-12T19:37:56;10.20;99.90
3923;DHT22;1976;51.694;6.256;2023-02-12T19:40:22;10.20;99.90
3923;DHT22;1976;51.694;6.256;2023-02-12T19:42:48;10.10;99.90